This is the latest recevied weather packets stored in our database for station/object SP8PUB-10. If no packets are shown the sender has not sent any weather packets the latest 10 day(s).
| Time | Temp. | Humidity | Pressure | Rain* | Wind** | Luminosity | Snow |
|---|---|---|---|---|---|---|---|
| 1777754126 | 12.22° C | 64% | 1022.4 hPa | - | - | - | - |
| 1777753226 | 12.22° C | 62% | 1022.4 hPa | - | - | - | - |
| 1777752326 | 12.78° C | 62% | 1022.4 hPa | - | - | - | - |
| 1777751426 | 13.33° C | 61% | 1022.3 hPa | - | - | - | - |
| 1777749625 | 12.78° C | 66% | 1022.5 hPa | - | - | - | - |
| 1777748725 | 13.33° C | 63% | 1022.4 hPa | - | - | - | - |
| 1777747825 | 13.89° C | 61% | 1022.4 hPa | - | - | - | - |
| 1777746025 | 14.44° C | 58% | 1022.2 hPa | - | - | - | - |
| 1777745125 | 15.56° C | 56% | 1022.1 hPa | - | - | - | - |
| 1777744225 | 16.11° C | 54% | 1022 hPa | - | - | - | - |
| 1777743325 | 17.22° C | 52% | 1022 hPa | - | - | - | - |
| 1777742425 | 17.78° C | 49% | 1022.1 hPa | - | - | - | - |
| 1777740624 | 18.89° C | 47% | 1022.1 hPa | - | - | - | - |
| 1777739724 | 18.89° C | 47% | 1022 hPa | - | - | - | - |
| 1777737924 | 19.44° C | 46% | 1022.4 hPa | - | - | - | - |
| 1777737024 | 20° C | 46% | 1022.4 hPa | - | - | - | - |
| 1777736124 | 20.56° C | 46% | 1022.7 hPa | - | - | - | - |
| 1777735224 | 20.56° C | 46% | 1022.7 hPa | - | - | - | - |
| 1777734324 | 20.56° C | 46% | 1022.9 hPa | - | - | - | - |
| 1777733423 | 20.56° C | 46% | 1023.1 hPa | - | - | - | - |
| 1777732523 | 20.56° C | 46% | 1023.2 hPa | - | - | - | - |
| 1777731623 | 20.56° C | 47% | 1023.3 hPa | - | - | - | - |
| 1777730723 | 20.56° C | 46% | 1023.5 hPa | - | - | - | - |
| 1777729823 | 20° C | 46% | 1023.7 hPa | - | - | - | - |
| 1777728923 | 20° C | 46% | 1023.8 hPa | - | - | - | - |
* Rain since midnight (hover to see other rain measurements)
** Current wind speed in m/s (hover to see current wind gust speed)